createdAt,value
2023-03-06T00:00:35.565Z,100255.58
2023-03-06T00:01:37.394Z,100252.95
2023-03-06T00:02:39.187Z,100257.23
2023-03-06T00:03:41.021Z,100258.93
2023-03-06T00:04:42.907Z,100258.93
2023-03-06T00:05:44.845Z,100247.02
2023-03-06T00:06:46.657Z,100252.20
2023-03-06T00:07:48.467Z,100248.77
2023-03-06T00:08:50.274Z,100255.69
2023-03-06T00:09:52.085Z,100252.43
2023-03-06T00:10:53.929Z,100251.63
2023-03-06T00:11:55.723Z,100249.92
2023-03-06T00:12:57.529Z,100254.25
2023-03-06T00:13:59.341Z,100246.48
2023-03-06T00:15:01.170Z,100245.68
2023-03-06T00:16:03.031Z,100249.05
2023-03-06T00:17:04.841Z,100240.44
2023-03-06T00:18:06.651Z,100245.48
2023-03-06T00:19:08.461Z,100254.94
2023-03-06T00:20:10.769Z,100250.76
2023-03-06T00:21:12.629Z,100247.35
2023-03-06T00:22:14.429Z,100247.35
2023-03-06T00:23:16.221Z,100250.03
2023-03-06T00:24:18.034Z,100255.22
2023-03-06T00:25:19.940Z,100249.39
2023-03-06T00:26:21.809Z,100246.82
2023-03-06T00:27:23.613Z,100245.11
2023-03-06T00:28:25.414Z,100253.66
2023-03-06T00:29:27.231Z,100251.09
2023-03-06T00:30:29.027Z,100250.98
2023-03-06T00:31:30.913Z,100251.84
2023-03-06T00:32:32.737Z,100251.03
2023-03-06T00:33:34.604Z,100249.33
2023-03-06T00:34:36.414Z,100243.33
2023-03-06T00:35:38.276Z,100250.14
2023-03-06T00:36:40.181Z,100253.55
2023-03-06T00:37:41.984Z,100238.14
2023-03-06T00:38:43.796Z,100253.61
2023-03-06T00:39:45.605Z,100247.58
2023-03-06T00:40:47.400Z,100251.84
2023-03-06T00:41:49.273Z,100242.38
2023-03-06T00:42:51.058Z,100239.00
2023-03-06T00:43:52.878Z,100232.95
2023-03-06T00:44:54.704Z,100251.03
2023-03-06T00:45:56.553Z,100243.33
2023-03-06T00:46:58.362Z,100243.33
2023-03-06T00:48:00.161Z,100239.87
2023-03-06T00:49:01.978Z,100248.36
2023-03-06T00:50:03.831Z,100247.46
2023-03-06T00:51:05.589Z,100242.27
2023-03-06T00:52:07.445Z,100243.17
2023-03-06T00:53:09.249Z,100243.98
2023-03-06T00:54:11.092Z,100248.25
2023-03-06T00:55:12.956Z,100246.55
2023-03-06T00:56:14.732Z,100242.27
2023-03-06T00:57:16.582Z,100243.17
2023-03-06T00:58:18.384Z,100240.66
2023-03-06T00:59:20.190Z,100244.03
2023-03-06T01:00:21.990Z,100238.09
2023-03-06T01:01:23.793Z,100243.22
2023-03-06T01:02:25.737Z,100250.92
2023-03-06T01:03:27.597Z,100247.46
2023-03-06T01:04:29.415Z,100245.73
2023-03-06T01:05:31.203Z,100243.11
2023-03-06T01:06:33.010Z,100250.81
2023-03-06T01:07:34.883Z,100248.25
2023-03-06T01:08:36.683Z,100245.68
2023-03-06T01:09:38.488Z,100241.35
2023-03-06T01:10:40.295Z,100247.35
2023-03-06T01:11:42.101Z,100247.35
2023-03-06T01:12:43.989Z,100245.62
2023-03-06T01:13:45.785Z,100244.78
2023-03-06T01:14:47.686Z,100244.78
2023-03-06T01:15:49.502Z,100247.30
2023-03-06T01:16:51.330Z,100244.78
2023-03-06T01:17:53.175Z,100248.19
2023-03-06T01:18:54.978Z,100246.55
2023-03-06T01:19:56.789Z,100245.68
2023-03-06T01:20:58.700Z,100244.84
2023-03-06T01:22:00.494Z,100246.59
2023-03-06T01:23:02.345Z,100247.46
2023-03-06T01:24:04.141Z,100245.73
2023-03-06T01:25:05.958Z,100249.11
2023-03-06T01:26:07.875Z,100250.87
2023-03-06T01:27:09.668Z,100250.87
2023-03-06T01:28:11.514Z,100253.44
2023-03-06T01:29:13.330Z,100255.95
2023-03-06T01:30:16.560Z,100256.81
2023-03-06T01:31:18.405Z,100255.05
2023-03-06T01:32:20.246Z,100255.84
2023-03-06T01:33:22.069Z,100256.64
2023-03-06T01:34:23.867Z,100254.89
2023-03-06T01:35:25.681Z,100258.31
2023-03-06T01:36:27.471Z,100264.41
2023-03-06T01:37:29.297Z,100256.64
2023-03-06T01:38:31.146Z,100250.55
2023-03-06T01:39:32.951Z,100258.15
2023-03-06T01:40:34.746Z,100257.34
2023-03-06T01:41:36.561Z,100254.72
2023-03-06T01:42:38.403Z,100256.47
2023-03-06T01:43:40.230Z,100251.28
2023-03-06T01:44:42.063Z,100260.66
2023-03-06T01:45:43.869Z,100263.22
2023-03-06T01:46:45.640Z,100259.73
2023-03-06T01:47:47.462Z,100258.03
2023-03-06T01:48:49.301Z,100257.17
2023-03-06T01:49:51.094Z,100256.36
2023-03-06T01:50:52.885Z,100255.47
2023-03-06T01:51:54.715Z,100253.69
2023-03-06T01:52:56.508Z,100256.25
2023-03-06T01:53:58.364Z,100244.22
2023-03-06T01:55:00.148Z,100255.35
2023-03-06T01:56:02.065Z,100255.41
2023-03-06T01:57:03.864Z,100255.41
2023-03-06T01:58:05.654Z,100255.47
2023-03-06T01:59:07.501Z,100254.49
2023-03-06T02:00:10.115Z,100250.16
2023-03-06T02:01:11.958Z,100257.11
2023-03-06T02:02:13.859Z,100241.71
2023-03-06T02:03:15.669Z,100248.61
2023-03-06T02:04:17.516Z,100247.71
2023-03-06T02:05:19.312Z,100248.66
2023-03-06T02:06:21.114Z,100255.52
2023-03-06T02:07:22.926Z,100249.52
2023-03-06T02:08:24.714Z,100258.98
2023-03-06T02:09:26.566Z,100252.03
2023-03-06T02:10:28.372Z,100250.28
2023-03-06T02:11:30.189Z,100258.81
2023-03-06T02:12:31.988Z,100257.00
2023-03-06T02:13:33.777Z,100255.30
2023-03-06T02:14:35.620Z,100254.44
2023-03-06T02:15:37.419Z,100255.30
2023-03-06T02:16:39.304Z,100253.63
2023-03-06T02:17:41.137Z,100246.73
2023-03-06T02:18:42.938Z,100257.00
2023-03-06T02:19:44.782Z,100255.30
2023-03-06T02:20:46.582Z,100257.92
2023-03-06T02:21:48.393Z,100253.69
2023-03-06T02:22:50.181Z,100253.69
2023-03-06T02:23:51.981Z,100250.22
2023-03-06T02:24:53.822Z,100256.25
2023-03-06T02:25:55.632Z,100252.78
2023-03-06T02:26:57.423Z,100261.44
2023-03-06T02:27:59.228Z,100258.03
2023-03-06T02:29:01.027Z,100247.02
2023-03-06T02:30:02.889Z,100252.20
2023-03-06T02:31:04.723Z,100246.27
2023-03-06T02:32:06.544Z,100248.83
2023-03-06T02:33:08.485Z,100247.99
2023-03-06T02:34:10.369Z,100244.62
2023-03-06T02:35:12.207Z,100242.05
2023-03-06T02:36:14.111Z,100242.86
2023-03-06T02:37:15.913Z,100243.81
2023-03-06T02:38:17.711Z,100241.13
2023-03-06T02:39:19.524Z,100238.50
2023-03-06T02:40:21.361Z,100245.25
2023-03-06T02:41:23.170Z,100241.83
2023-03-06T02:42:24.964Z,100247.83
2023-03-06T02:43:26.671Z,100248.72
2023-03-06T02:44:28.477Z,100242.63
2023-03-06T02:45:30.337Z,100251.23
2023-03-06T02:46:32.352Z,100246.04
2023-03-06T02:47:34.144Z,100244.28
2023-03-06T02:48:35.957Z,100249.36
2023-03-06T02:49:37.758Z,100243.36
2023-03-06T02:50:39.611Z,100252.73
2023-03-06T02:51:41.398Z,100252.67
2023-03-06T02:52:43.209Z,100257.75
2023-03-06T02:53:45.005Z,100254.31
2023-03-06T02:54:46.800Z,100254.37
2023-03-06T02:55:48.662Z,100257.75
2023-03-06T02:56:50.439Z,100256.08
2023-03-06T02:57:52.249Z,100262.08
2023-03-06T02:58:54.038Z,100256.08
2023-03-06T02:59:55.836Z,100257.75
2023-03-06T03:00:57.790Z,100263.72
2023-03-06T03:01:59.595Z,100267.15
2023-03-06T03:03:01.392Z,100259.45
2023-03-06T03:04:03.233Z,100263.78
2023-03-06T03:05:05.105Z,100266.34
2023-03-06T03:06:07.254Z,100267.20
2023-03-06T03:07:09.063Z,100265.45
2023-03-06T03:08:10.886Z,100264.59
2023-03-06T03:09:12.698Z,100269.77
2023-03-06T03:10:14.497Z,100270.64
2023-03-06T03:11:16.338Z,100272.28
2023-03-06T03:12:18.154Z,100276.61
2023-03-06T03:13:19.962Z,100271.48
2023-03-06T03:14:21.766Z,100281.74
2023-03-06T03:15:23.556Z,100275.71
2023-03-06T03:16:25.406Z,100275.71
2023-03-06T03:17:27.207Z,100285.12
2023-03-06T03:18:29.006Z,100283.41
2023-03-06T03:19:30.828Z,100286.04
2023-03-06T03:20:32.622Z,100280.91
2023-03-06T03:21:34.468Z,100280.91
2023-03-06T03:22:36.274Z,100282.61
2023-03-06T03:23:38.081Z,100282.61
2023-03-06T03:24:39.907Z,100282.61
2023-03-06T03:25:41.689Z,100283.47
2023-03-06T03:26:43.631Z,100286.04
2023-03-06T03:27:45.443Z,100281.74
2023-03-06T03:28:47.262Z,100284.31
2023-03-06T03:29:49.046Z,100285.12
2023-03-06T03:30:50.870Z,100279.12
2023-03-06T03:31:52.686Z,100281.69
2023-03-06T03:32:54.495Z,100278.28
2023-03-06T03:33:56.291Z,100283.47
2023-03-06T03:34:58.098Z,100284.37
2023-03-06T03:35:59.908Z,100286.09
2023-03-06T03:37:01.766Z,100285.34
2023-03-06T03:38:03.574Z,100291.34
2023-03-06T03:39:05.381Z,100282.84
2023-03-06T03:40:07.273Z,100282.84
2023-03-06T03:41:09.180Z,100278.56
2023-03-06T03:42:11.048Z,100284.59
2023-03-06T03:43:12.849Z,100286.33
2023-03-06T03:44:14.657Z,100276.90
2023-03-06T03:45:16.468Z,100283.76
2023-03-06T03:46:18.416Z,100282.89
2023-03-06T03:47:20.226Z,100281.97
2023-03-06T03:48:22.026Z,100282.78
2023-03-06T03:49:23.936Z,100287.05
2023-03-06T03:50:25.773Z,100287.86
2023-03-06T03:51:27.567Z,100282.72
2023-03-06T03:52:29.400Z,100287.05
2023-03-06T03:53:31.198Z,100290.48
2023-03-06T03:54:33.011Z,100287.11
2023-03-06T03:55:34.825Z,100289.73
2023-03-06T03:56:36.614Z,100291.46
2023-03-06T03:57:38.468Z,100290.59
2023-03-06T03:58:40.276Z,100289.79
2023-03-06T03:59:42.082Z,100285.52
2023-03-06T04:00:43.892Z,100289.84
2023-03-06T04:01:45.711Z,100289.00
2023-03-06T04:02:47.556Z,100289.13
2023-03-06T04:03:49.364Z,100294.34
2023-03-06T04:04:51.206Z,100294.34
2023-03-06T04:05:53.087Z,100293.45
2023-03-06T04:06:54.986Z,100297.78
2023-03-06T04:07:56.833Z,100290.88
2023-03-06T04:08:58.644Z,100288.31
2023-03-06T04:10:00.460Z,100285.75
2023-03-06T04:11:02.260Z,100290.94
2023-03-06T04:12:04.065Z,100293.56
2023-03-06T04:13:07.540Z,100296.12
2023-03-06T04:14:09.544Z,100295.32
2023-03-06T04:15:11.389Z,100287.68
2023-03-06T04:16:13.331Z,100292.06
2023-03-06T04:17:15.172Z,100287.84
2023-03-06T04:18:17.027Z,100284.41
2023-03-06T04:19:18.824Z,100291.28
2023-03-06T04:20:20.621Z,100285.34
2023-03-06T04:21:22.422Z,100288.02
2023-03-06T04:22:24.239Z,100283.74
2023-03-06T04:23:26.113Z,100283.80
2023-03-06T04:24:27.912Z,100281.34
2023-03-06T04:25:29.716Z,100286.53
2023-03-06T04:26:31.533Z,100283.21
2023-03-06T04:27:33.339Z,100285.84
2023-03-06T04:28:35.187Z,100281.59
2023-03-06T04:29:37.004Z,100287.65
2023-03-06T04:30:38.786Z,100286.84
2023-03-06T04:31:40.644Z,100294.60
2023-03-06T04:32:42.467Z,100288.57
2023-03-06T04:33:44.351Z,100280.92
2023-03-06T04:34:46.164Z,100290.38
2023-03-06T04:35:48.021Z,100298.20
2023-03-06T04:36:49.787Z,100292.20
2023-03-06T04:37:51.599Z,100292.20
2023-03-06T04:38:53.468Z,100296.44
2023-03-06T04:39:55.348Z,100293.81
2023-03-06T04:40:57.151Z,100292.09
2023-03-06T04:41:59.058Z,100298.95
2023-03-06T04:43:00.857Z,100298.09
2023-03-06T04:44:02.697Z,100290.38
2023-03-06T04:45:04.502Z,100277.54
2023-03-06T04:46:06.470Z,100282.68
2023-03-06T04:47:08.404Z,100289.52
2023-03-06T04:48:10.423Z,100280.92
2023-03-06T04:49:12.297Z,100291.25
2023-03-06T04:50:15.628Z,100294.66
2023-03-06T04:51:17.433Z,100286.16
2023-03-06T04:52:19.230Z,100291.25
2023-03-06T04:53:21.032Z,100280.11
2023-03-06T04:54:22.889Z,100288.68
2023-03-06T04:55:24.690Z,100290.44
2023-03-06T04:56:26.590Z,100291.25
2023-03-06T04:57:28.384Z,100296.44
2023-03-06T04:58:30.189Z,100291.30
2023-03-06T04:59:32.040Z,100293.06
2023-03-06T05:00:34.158Z,100300.82
2023-03-06T05:01:35.956Z,100306.07
2023-03-06T05:02:37.762Z,100301.05
2023-03-06T05:03:39.614Z,100306.23
2023-03-06T05:04:41.456Z,100306.23
2023-03-06T05:05:43.263Z,100306.34
2023-03-06T05:06:45.088Z,100308.97
2023-03-06T05:07:46.885Z,100306.50
2023-03-06T05:08:48.681Z,100315.16
2023-03-06T05:09:50.530Z,100308.37
2023-03-06T05:10:52.326Z,100308.48
2023-03-06T05:11:54.137Z,100300.83
2023-03-06T05:12:55.936Z,100304.42
2023-03-06T05:13:57.725Z,100301.17
2023-03-06T05:14:59.573Z,100298.71
2023-03-06T05:16:01.389Z,100304.91
2023-03-06T05:17:03.191Z,100294.73
2023-03-06T05:18:04.987Z,100298.27
2023-03-06T05:19:06.795Z,100305.32
2023-03-06T05:20:10.465Z,100294.33
2023-03-06T05:21:12.290Z,100307.44
2023-03-06T05:22:14.107Z,100300.80
2023-03-06T05:23:15.927Z,100300.99
2023-03-06T05:24:17.722Z,100314.05
2023-03-06T05:25:19.562Z,100311.68
2023-03-06T05:26:21.375Z,100317.08
2023-03-06T05:27:23.215Z,100313.02
2023-03-06T05:28:25.014Z,100317.45
2023-03-06T05:29:26.819Z,100317.64
2023-03-06T05:30:28.974Z,100314.36
2023-03-06T05:31:30.887Z,100317.16
2023-03-06T05:32:35.088Z,100316.50
2023-03-06T05:33:36.275Z,100320.97
2023-03-06T05:34:38.091Z,100316.05
2023-03-06T05:35:39.947Z,100315.37
2023-03-06T05:36:41.814Z,100317.31
2023-03-06T05:37:43.614Z,100321.75
2023-03-06T05:38:45.523Z,100322.83
2023-03-06T05:39:47.334Z,100324.77
2023-03-06T05:40:49.172Z,100315.50
2023-03-06T05:41:50.979Z,100325.98
2023-03-06T05:42:52.772Z,100319.31
2023-03-06T05:43:54.589Z,100322.06
2023-03-06T05:44:56.395Z,100316.19
2023-03-06T05:45:58.272Z,100315.49
2023-03-06T05:47:00.071Z,100314.75
2023-03-06T05:48:01.872Z,100313.20
2023-03-06T05:49:03.694Z,100310.79
2023-03-06T05:50:05.624Z,100310.94
2023-03-06T05:51:07.492Z,100313.69
2023-03-06T05:52:09.298Z,100319.00
2023-03-06T05:53:11.095Z,100318.27
2023-03-06T05:54:12.922Z,100317.64
2023-03-06T05:55:14.709Z,100309.15
2023-03-06T05:56:16.685Z,100317.91
2023-03-06T05:57:18.522Z,100312.93
2023-03-06T05:58:20.341Z,100319.14
2023-03-06T05:59:22.144Z,100315.84
2023-03-06T06:00:23.940Z,100325.50
2023-03-06T06:01:25.810Z,100319.62
2023-03-06T06:02:27.720Z,100322.34
2023-03-06T06:03:29.556Z,100326.00
2023-03-06T06:04:31.422Z,100333.92
2023-03-06T06:05:33.195Z,100331.52
2023-03-06T06:06:35.072Z,100337.67
2023-03-06T06:07:36.853Z,100342.16
2023-03-06T06:08:38.668Z,100349.17
2023-03-06T06:09:40.467Z,100350.17
2023-03-06T06:10:42.282Z,100353.75
2023-03-06T06:11:44.126Z,100356.47
2023-03-06T06:12:45.969Z,100355.73
2023-03-06T06:13:47.764Z,100347.19
2023-03-06T06:14:49.452Z,100354.23
2023-03-06T06:15:51.279Z,100362.09
2023-03-06T06:16:53.244Z,100363.91
2023-03-06T06:17:55.056Z,100363.97
2023-03-06T06:18:56.850Z,100366.63
2023-03-06T06:19:58.669Z,100358.92
2023-03-06T06:21:00.492Z,100356.40
2023-03-06T06:22:02.337Z,100357.29
2023-03-06T06:23:04.386Z,100361.66
2023-03-06T06:24:06.173Z,100360.00
2023-03-06T06:25:07.992Z,100366.95
2023-03-06T06:26:10.293Z,100362.71
2023-03-06T06:27:12.144Z,100357.56
2023-03-06T06:28:13.977Z,100364.49
2023-03-06T06:29:15.761Z,100363.69
2023-03-06T06:30:17.560Z,100365.50
2023-03-06T06:31:19.411Z,100369.84
2023-03-06T06:32:21.279Z,100373.35
2023-03-06T06:33:23.379Z,100373.38
2023-03-06T06:34:25.204Z,100367.38
2023-03-06T06:35:27.049Z,100373.41
2023-03-06T06:36:28.802Z,100373.44
2023-03-06T06:37:30.650Z,100375.20
2023-03-06T06:38:32.471Z,100379.50
2023-03-06T06:39:34.262Z,100371.66
2023-03-06T06:40:36.085Z,100383.84
2023-03-06T06:41:57.274Z,100379.56
2023-03-06T06:42:41.547Z,100379.56
2023-03-06T06:43:43.383Z,100389.11
2023-03-06T06:44:45.190Z,100384.83
2023-03-06T06:45:48.902Z,100386.61
2023-03-06T06:47:54.363Z,100384.13
2023-03-06T06:48:56.128Z,100385.98
2023-03-06T06:49:57.937Z,100386.86
2023-03-06T06:50:59.870Z,100383.47
2023-03-06T06:52:01.663Z,100381.80
2023-03-06T06:53:03.505Z,100378.40
2023-03-06T06:54:05.317Z,100381.91
2023-03-06T06:55:07.128Z,100378.53
2023-03-06T06:56:08.941Z,100387.22
2023-03-06T06:57:10.761Z,100380.37
2023-03-06T06:58:12.619Z,100385.60
2023-03-06T06:59:17.019Z,100386.52
2023-03-06T07:00:18.144Z,100388.30
2023-03-06T07:01:21.020Z,100386.59
2023-03-06T07:02:22.802Z,100390.95
2023-03-06T07:03:24.666Z,100395.33
2023-03-06T07:04:26.459Z,100397.95
2023-03-06T07:05:28.285Z,100398.86
2023-03-06T07:06:30.121Z,100397.16
2023-03-06T07:07:31.934Z,100401.50
2023-03-06T07:08:33.785Z,100392.05
2023-03-06T07:09:35.571Z,100399.00
2023-03-06T07:10:37.378Z,100402.52
2023-03-06T07:11:39.192Z,100401.67
2023-03-06T07:12:40.997Z,100394.81
2023-03-06T07:13:42.956Z,100399.16
2023-03-06T07:14:44.759Z,100403.55
2023-03-06T07:15:46.598Z,100406.16
2023-03-06T07:16:48.472Z,100407.91
2023-03-06T07:17:50.479Z,100406.19
2023-03-06T07:18:52.356Z,100410.53
2023-03-06T07:19:54.150Z,100411.41
2023-03-06T07:20:55.964Z,100414.92
2023-03-06T07:21:57.864Z,100411.48
2023-03-06T07:22:59.701Z,100415.00
2023-03-06T07:24:01.575Z,100412.45
2023-03-06T07:25:03.384Z,100412.48
2023-03-06T07:26:05.324Z,100405.58
2023-03-06T07:27:07.149Z,100407.36
2023-03-06T07:28:09.012Z,100411.70
2023-03-06T07:29:10.927Z,100415.18
2023-03-06T07:30:13.365Z,100417.80
2023-03-06T07:31:15.157Z,100410.88
2023-03-06T07:32:17.010Z,100416.06
2023-03-06T07:33:18.809Z,100410.88
2023-03-06T07:34:20.665Z,100408.27
2023-03-06T07:35:22.579Z,100410.00
2023-03-06T07:36:24.494Z,100417.80
2023-03-06T07:37:26.299Z,100416.95
2023-03-06T07:38:28.130Z,100414.39
2023-03-06T07:39:30.085Z,100413.52
2023-03-06T07:40:31.887Z,100411.84
2023-03-06T07:41:33.738Z,100418.72
2023-03-06T07:42:35.578Z,100418.72
2023-03-06T07:43:37.372Z,100412.70
2023-03-06T07:44:39.242Z,100415.27
2023-03-06T07:45:41.046Z,100418.72
2023-03-06T07:46:43.021Z,100412.67
2023-03-06T07:47:44.850Z,100416.11
2023-03-06T07:48:46.662Z,100412.67
2023-03-06T07:49:48.511Z,100411.81
2023-03-06T07:50:50.319Z,100410.11
2023-03-06T07:51:52.127Z,100405.78
2023-03-06T07:52:53.938Z,100410.13
2023-03-06T07:53:55.764Z,100401.52
2023-03-06T07:54:57.676Z,100408.42
2023-03-06T07:55:59.550Z,100400.64
2023-03-06T07:57:01.337Z,100397.21
2023-03-06T07:58:03.158Z,100402.42
2023-03-06T07:59:05.020Z,100399.84
2023-03-06T08:00:07.063Z,100397.25
2023-03-06T08:01:08.857Z,100395.58
2023-03-06T08:02:10.682Z,100410.28
2023-03-06T08:03:12.548Z,100393.05
2023-03-06T08:04:14.466Z,100393.06
2023-03-06T08:05:16.369Z,100390.47
2023-03-06T08:06:18.170Z,100391.35
2023-03-06T08:07:20.437Z,100382.67
2023-03-06T08:08:22.245Z,100387.88
2023-03-06T08:09:24.096Z,100377.51
2023-03-06T08:10:26.064Z,100380.10
2023-03-06T08:11:27.858Z,100390.45
2023-03-06T08:12:29.647Z,100389.58
2023-03-06T08:13:31.625Z,100395.66
2023-03-06T08:14:33.417Z,100398.27
2023-03-06T08:15:35.276Z,100393.95
2023-03-06T08:16:37.248Z,100397.42
2023-03-06T08:17:39.048Z,100404.36
2023-03-06T08:18:40.849Z,100399.16
2023-03-06T08:19:42.659Z,100396.56
2023-03-06T08:20:44.626Z,100396.58
2023-03-06T08:21:46.421Z,100400.03
2023-03-06T08:22:48.291Z,100388.82
2023-03-06T08:23:50.063Z,100393.17
2023-03-06T08:24:51.865Z,100394.03
2023-03-06T08:25:53.763Z,100394.03
2023-03-06T08:26:55.676Z,100399.23
2023-03-06T08:27:57.485Z,100395.80
2023-03-06T08:28:59.286Z,100404.45
2023-03-06T08:30:01.101Z,100409.63
2023-03-06T08:31:02.977Z,100404.45
2023-03-06T08:32:04.854Z,100407.91
2023-03-06T08:33:06.730Z,100399.30
2023-03-06T08:34:08.585Z,100404.50
2023-03-06T08:35:10.374Z,100405.41
2023-03-06T08:36:12.327Z,100412.36
2023-03-06T08:37:14.206Z,100411.52
2023-03-06T08:38:15.975Z,100421.06
2023-03-06T08:39:17.795Z,100412.41
2023-03-06T08:40:19.762Z,100411.56
2023-03-06T08:41:21.642Z,100412.42
2023-03-06T08:42:23.470Z,100406.39
2023-03-06T08:43:25.265Z,100409.01
2023-03-06T08:44:27.072Z,100409.01
2023-03-06T08:45:30.516Z,100415.97
2023-03-06T08:46:32.568Z,100417.73
2023-03-06T08:47:34.395Z,100412.55
2023-03-06T08:48:36.213Z,100418.66
2023-03-06T08:49:38.048Z,100415.25
2023-03-06T08:50:39.953Z,100420.45
2023-03-06T08:51:41.825Z,100422.16
2023-03-06T08:52:43.662Z,100421.33
2023-03-06T08:53:45.472Z,100419.57
2023-03-06T08:54:47.706Z,100424.76
2023-03-06T08:55:49.582Z,100424.76
2023-03-06T08:56:51.450Z,100423.06
2023-03-06T08:57:53.260Z,100421.34
2023-03-06T08:58:54.982Z,100429.14
2023-03-06T08:59:56.782Z,100425.70
2023-03-06T09:00:58.654Z,100423.97
2023-03-06T09:02:00.612Z,100421.40
2023-03-06T09:03:02.480Z,100431.81
2023-03-06T09:04:04.313Z,100424.05
2023-03-06T09:05:06.144Z,100424.06
2023-03-06T09:06:08.224Z,100420.59
2023-03-06T09:07:10.048Z,100423.20
2023-03-06T09:08:11.850Z,100424.08
2023-03-06T09:09:13.659Z,100431.03
2023-03-06T09:10:15.731Z,100430.17
2023-03-06T09:11:17.514Z,100427.59
2023-03-06T09:12:19.362Z,100431.94
2023-03-06T09:13:21.163Z,100419.86
2023-03-06T09:14:22.985Z,100434.52
2023-03-06T09:15:24.839Z,100434.50
2023-03-06T09:16:26.822Z,100429.31
2023-03-06T09:17:28.766Z,100435.36
2023-03-06T09:18:30.632Z,100434.52
2023-03-06T09:19:32.428Z,100438.02
2023-03-06T09:20:34.246Z,100439.73
2023-03-06T09:21:36.070Z,100437.11
2023-03-06T09:22:37.950Z,100439.67
2023-03-06T09:23:39.810Z,100438.81
2023-03-06T09:24:41.618Z,100436.25
2023-03-06T09:25:43.476Z,100435.36
2023-03-06T09:26:47.190Z,100434.53
2023-03-06T09:27:58.242Z,100447.52
2023-03-06T09:28:52.589Z,100438.84
2023-03-06T09:29:54.395Z,100437.11
2023-03-06T09:30:56.428Z,100431.06
2023-03-06T09:31:58.232Z,100443.13
2023-03-06T09:33:00.112Z,100442.27
2023-03-06T09:34:01.887Z,100437.08
2023-03-06T09:35:03.699Z,100440.52
2023-03-06T09:36:05.523Z,100437.05
2023-03-06T09:37:07.353Z,100443.09
2023-03-06T09:38:10.695Z,100444.86
2023-03-06T09:39:12.493Z,100443.16
2023-03-06T09:40:14.307Z,100441.50
2023-03-06T09:41:16.132Z,100438.92
2023-03-06T09:42:17.912Z,100428.52
2023-03-06T09:43:19.830Z,100445.76
2023-03-06T09:44:21.654Z,100443.15
2023-03-06T09:45:23.449Z,100431.06
2023-03-06T09:46:25.292Z,100430.19
2023-03-06T09:47:27.051Z,100432.77
2023-03-06T09:48:28.943Z,100430.19
2023-03-06T09:49:30.751Z,100435.43
2023-03-06T09:50:32.548Z,100427.66
2023-03-06T09:51:34.353Z,100431.99
2023-03-06T09:52:36.188Z,100432.85
2023-03-06T09:53:38.046Z,100434.52
2023-03-06T09:54:39.855Z,100432.78
2023-03-06T09:55:41.674Z,100431.06
2023-03-06T09:56:43.581Z,100444.88
2023-03-06T09:57:45.394Z,100432.75
2023-03-06T09:58:47.257Z,100443.98
2023-03-06T09:59:49.053Z,100438.76
2023-03-06T10:00:51.074Z,100443.05
2023-03-06T10:01:52.886Z,100442.21
2023-03-06T10:02:54.913Z,100443.08
2023-03-06T10:03:56.841Z,100443.08
2023-03-06T10:04:58.713Z,100438.73
2023-03-06T10:06:02.656Z,100439.58
2023-03-06T10:07:04.243Z,100435.23
2023-03-06T10:08:06.067Z,100436.97
2023-03-06T10:09:07.934Z,100434.36
2023-03-06T10:10:10.832Z,100431.78
2023-03-06T10:11:12.680Z,100435.27
2023-03-06T10:12:14.493Z,100430.08
2023-03-06T10:13:16.348Z,100437.05
2023-03-06T10:14:18.190Z,100426.66
2023-03-06T10:15:19.984Z,100435.29
2023-03-06T10:16:21.823Z,100427.47
2023-03-06T10:17:23.733Z,100440.42
2023-03-06T10:18:25.612Z,100436.09
2023-03-06T10:19:27.480Z,100428.33
2023-03-06T10:20:29.305Z,100433.55
2023-03-06T10:21:31.131Z,100435.25
2023-03-06T10:22:32.927Z,100437.83
2023-03-06T10:23:34.803Z,100430.05
2023-03-06T10:24:36.636Z,100430.91
2023-03-06T10:25:38.451Z,100430.94
2023-03-06T10:26:40.424Z,100424.85
2023-03-06T10:27:42.266Z,100421.44
2023-03-06T10:28:44.136Z,100431.78
2023-03-06T10:30:01.242Z,100425.73
2023-03-06T10:30:49.678Z,100423.97
2023-03-06T10:31:51.443Z,100425.69
2023-03-06T10:32:53.396Z,100423.94
2023-03-06T10:33:55.239Z,100417.87
2023-03-06T10:34:57.087Z,100427.36
2023-03-06T10:35:58.927Z,100423.90
2023-03-06T10:37:00.710Z,100422.95
2023-03-06T10:38:02.530Z,100422.95
2023-03-06T10:39:04.359Z,100430.73
2023-03-06T10:40:07.854Z,100426.42
2023-03-06T10:41:10.127Z,100428.13
2023-03-06T10:42:11.966Z,100422.08
2023-03-06T10:43:13.779Z,100420.32
2023-03-06T10:44:15.594Z,100422.05
2023-03-06T10:45:17.458Z,100429.86
2023-03-06T10:46:19.283Z,100425.53
2023-03-06T10:47:22.468Z,100429.86
2023-03-06T10:48:24.270Z,100426.38
2023-03-06T10:49:26.071Z,100422.89
2023-03-06T10:50:27.940Z,100423.75
2023-03-06T10:51:29.782Z,100422.84
2023-03-06T10:52:31.601Z,100420.28
2023-03-06T10:53:33.512Z,100422.89
2023-03-06T10:54:35.322Z,100426.41
2023-03-06T10:55:37.186Z,100429.02
2023-03-06T10:56:38.980Z,100418.60
2023-03-06T10:57:40.797Z,100428.09
2023-03-06T10:58:42.598Z,100418.60
2023-03-06T10:59:44.395Z,100416.89
2023-03-06T11:00:46.255Z,100422.02
2023-03-06T11:01:48.134Z,100409.84
2023-03-06T11:02:49.964Z,100409.83
2023-03-06T11:03:51.748Z,100418.48
2023-03-06T11:04:53.612Z,100421.94
2023-03-06T11:05:55.393Z,100420.20
2023-03-06T11:06:57.309Z,100425.41
2023-03-06T11:07:59.135Z,100419.41
2023-03-06T11:09:00.949Z,100418.60
2023-03-06T11:10:02.779Z,100418.64
2023-03-06T11:11:04.625Z,100410.92
2023-03-06T11:12:06.440Z,100413.52
2023-03-06T11:13:08.232Z,100418.70
2023-03-06T11:14:10.049Z,100416.91
2023-03-06T11:15:11.854Z,100421.20
2023-03-06T11:16:14.079Z,100418.60
2023-03-06T11:17:15.822Z,100421.22
2023-03-06T11:18:17.624Z,100408.22
2023-03-06T11:19:19.516Z,100419.44
2023-03-06T11:20:21.640Z,100410.77
2023-03-06T11:21:23.498Z,100413.33
2023-03-06T11:22:25.348Z,100414.17
2023-03-06T11:23:27.151Z,100413.33
2023-03-06T11:24:28.959Z,100409.89
2023-03-06T11:25:30.747Z,100418.58
2023-03-06T11:26:32.732Z,100404.75
2023-03-06T11:27:34.597Z,100414.29
2023-03-06T11:28:36.451Z,100413.43
2023-03-06T11:29:39.037Z,100416.05
2023-03-06T11:30:40.922Z,100415.17
2023-03-06T11:31:42.840Z,100414.33
2023-03-06T11:32:44.667Z,100414.31
2023-03-06T11:33:46.484Z,100417.77
2023-03-06T11:34:50.391Z,100414.31
2023-03-06T11:35:52.050Z,100412.58
2023-03-06T11:36:53.889Z,100421.30
2023-03-06T11:37:55.695Z,100421.33
2023-03-06T11:38:57.508Z,100416.11
2023-03-06T11:39:59.341Z,100416.92
2023-03-06T11:41:01.156Z,100417.87
2023-03-06T11:42:02.993Z,100423.06
2023-03-06T11:43:04.784Z,100422.19
2023-03-06T11:44:06.606Z,100422.20
2023-03-06T11:45:08.762Z,100416.97
2023-03-06T11:46:10.766Z,100416.05
2023-03-06T11:47:12.643Z,100422.09